Woodbine, Georgia
Current Conditions -  °F | °C
As of 3:13 AM on Monday 24 Nov 2014 (Local Time) from KSSI Reporting Station
Overcast Overcast  
Wind Chill: 64°   Ceiling: 8000
Heat Index: 64°   Visibility: 7mi
Dew Point: 64°   Wind: 6mph
Humidity: 100%   Direction: 150°SSE
Pressure: 29.87"   Gusts: NA
Location:  30.96°N, 81.72°W
Report Text: KSSI 240813Z AUTO 15005KT 7SM SCT013 BKN080 OVC095 18/18 A2987 RMK AO2 T01780178
Loading
Personal Weather Stations






























Interactive Weather Map New forecast layout! Learn more

10-Day Weather Forecast

Advertisements
Track Severe Weather on mobile